New Harbor, ME (Heathkit)

43° 52' 34"N, 69° 29' 40"W, Elevation 65 ft.
Eastern Time

Hourly observations for the last 72 hours

Date Time Temperature (°F) Humi-
dity

(%)
Wind
(mph)
Pressure Rain (in)
Air Dew 6 Hour 1 Hr 3 Hr 6 Hr Day
Alt
(in)
Sea
Level

(mb)
Max Min
2 07:00 28 24 32 24 86 SW 2 G 3 30.25 1024.4 0.00
2 06:00 28 23 82 S 2 G 7 30.23 1023.7 0.00
2 05:00 30 23 76 SSE 1 G 3 30.21 1023.1 0.00
2 04:00 31 22 70 SSW 3 G 11 30.18 1022.0 0.00
2 03:00 31 22 70 SW 6 G 12 30.16 1021.4 0.00
2 02:00 32 23 70 SW 4 G 11 30.11 1019.7 0.00
2 01:00 31 24 35 29 74 SW 4 G 9 30.08 1018.7 0.00
2 00:00 32 24 71 SW 4 G 10 30.06 1018.0 0.01
1 23:00 32 23 69 S 2 G 10 30.03 1017.0 0.01
1 22:00 32 23 70 SW 5 G 14 30.00 1016.0 0.01
1 21:00 34 24 66 SW 5 G 18 29.98 1015.3 0.01
1 20:00 34 24 67 SSE 3 G 14 29.96 1014.6 0.01
1 19:00 34 26 39 31 71 SSW 4 G 15 29.93 1013.6 0.01
1 18:00 35 27 72 SSW 4 G 15 29.90 1012.6 0.01
1 17:00 34 26 71 S 4 G 12 29.86 1011.2 0.01
1 16:00 36 26 66 SSW 8 G 22 29.81 1009.5 0.01
1 15:00 37 27 68 SSW 7 G 23 29.76 1007.8 0.01
1 14:00 38 28 66 SSE 2 G 10 29.70 1005.8 0.01
1 13:00 39 26 42 30 60 SW 8 G 16 29.68 1005.1 0.01
1 12:00 41 28 60 SW 8 G 21 29.64 1003.8 0.01
1 11:00 40 29 65 SSW 8 G 22 29.63 1003.4 0.01
1 10:00 38 27 64 SW 10 G 21 29.63 1003.4 0.01
1 09:00 37 28 70 SW 6 G 19 29.61 1002.7 0.01
1 08:00 34 26 72 WSW 5 G 11 29.59 1002.1 0.01
1 07:00 33 28 45 29 83 WSW 3 G 12 29.58 1001.7 0.01
1 06:00 34 30 86 SW 3 G 6 29.55 1000.7 0.01
1 05:00 35 29 79 SSW 5 G 11 29.51 999.4 0.01
1 04:00 37 33 85 SW 7 G 25 29.47 998.0 0.01
1 03:00 38 35 88 SW 8 G 19 29.43 996.6 0.01
1 02:00 40 39 95 SW 8 G 18 29.39 995.3 0.01
1 01:00 45 45 53 41 99 SW 3 G 9 29.32 992.9 0.01 0.11 0.74 0.01
1 00:00 47 47 99 SSW 3 G 6 29.30 992.2 0.07 1.20
30 23:00 48 48 99 S 2 G 7 29.29 991.9 0.03 1.13
30 22:00 49 49 99 SSW 3 G 14 29.24 990.2 0.12 0.63 1.10
30 21:00 53 53 99 SSE 15 G 37 29.23 989.9 0.37 0.98
30 20:00 53 53 99 S 13 G 36 29.30 992.2 0.14 0.61
30 19:00 52 52 52 42 99 SSE 14 G 35 29.37 994.6 0.07 0.29 0.34 0.47
30 18:00 51 51 99 SSE 12 G 31 29.46 997.7 0.12 0.40
30 17:00 50 50 99 SSE 13 G 37 29.54 1000.4 0.10 0.28
30 16:00 50 49 97 SSE 12 G 33 29.60 1002.4 0.05 0.05 0.18
30 15:00 50 48 93 SE 12 G 31 29.61 1002.7 0.13
30 14:00 49 48 96 SSE 12 G 33 29.67 1004.8 0.13
30 13:00 48 48 48 39 99 SE 12 G 25 29.76 1007.8 0.02 0.13 0.13 0.13
30 12:00 46 46 99 SE 10 G 22 29.83 1010.2 0.02 0.11
30 11:00 46 46 99 SSE 10 G 28 29.90 1012.6 0.09 0.09
30 10:00 46 45 96 SSE 10 G 23 29.94 1013.9 0.00
30 09:00 45 43 92 SSE 9 G 17 29.97 1014.9 0.00
30 08:00 45 41 87 SE 8 G 18 30.01 1016.3 0.00
30 07:00 44 40 44 35 86 SE 8 G 14 30.02 1016.6 0.00
30 06:00 42 38 86 SE 7 G 20 30.04 1017.3 0.00
30 05:00 42 38 84 SE 6 G 12 30.06 1018.0 0.00
30 04:00 41 36 83 SE 7 G 12 30.08 1018.7 0.00
30 03:00 40 36 84 ESE 5 G 12 30.12 1020.0 0.00
30 02:00 39 33 79 ESE 7 G 11 30.13 1020.4 0.00
30 01:00 38 33 38 25 81 SE 4 G 8 30.12 1020.0 0.00
30 00:00 37 30 77 ESE 5 G 9 30.12 1020.0 0.00
29 23:00 34 30 86 SE 4 G 6 30.14 1020.7 0.00
29 22:00 31 31 98 S 1 G 2 30.15 1021.0 0.00
29 21:00 30 29 97 SSE 0 G 2 30.13 1020.4 0.00
29 20:00 30 29 97 SE 1 G 2 30.14 1020.7 0.00
29 19:00 29 28 38 27 96 SSW 2 G 2 30.14 1020.7 0.00
29 18:00 30 29 95 S 1 G 3 30.14 1020.7 0.00
29 17:00 29 27 93 S 1 G 2 30.11 1019.7 0.00
29 16:00 33 29 84 Calm 30.10 1019.3 0.00
29 15:00 36 30 80 S 2 G 3 30.08 1018.7 0.00
29 14:00 37 31 79 S 5 G 9 30.07 1018.3 0.00
29 13:00 37 30 39 25 76 SSE 3 G 10 30.07 1018.3 0.00
29 12:00 39 31 73 SE 3 G 5 30.07 1018.3 0.00
29 11:00 34 28 80 S 1 G 5 30.08 1018.7 0.00
29 10:00 33 27 79 E 4 G 7 30.08 1018.7 0.00
29 09:00 31 26 80 ESE 6 G 9 30.05 1017.6 0.00
29 08:00 29 25 85 SE 3 G 5 30.04 1017.3 0.00

Data generated by WxSolution Version 1.9.1.8, Build 2020.02.16.